sensor_id;sensor_type;location;lat;lon;timestamp;pressure;altitude;pressure_sealevel;temperature;humidity
74561;BME280;62979;55.720;37.606;2023-05-07T00:01:01;100814.63;;;4.18;51.21
74561;BME280;62979;55.720;37.606;2023-05-07T00:03:28;100809.47;;;4.18;50.79
74561;BME280;62979;55.720;37.606;2023-05-07T00:05:55;100805.28;;;4.26;50.70
74561;BME280;62979;55.720;37.606;2023-05-07T00:08:21;100811.25;;;4.20;50.82
74561;BME280;62979;55.720;37.606;2023-05-07T00:10:48;100814.72;;;4.22;50.98
74561;BME280;62979;55.720;37.606;2023-05-07T00:13:17;100794.66;;;4.11;51.18
74561;BME280;62979;55.720;37.606;2023-05-07T00:15:43;100806.84;;;4.16;51.10
74561;BME280;62979;55.720;37.606;2023-05-07T00:18:10;100807.63;;;4.12;51.48
74561;BME280;62979;55.720;37.606;2023-05-07T00:20:37;100814.50;;;4.12;51.96
74561;BME280;62979;55.720;37.606;2023-05-07T00:23:04;100818.91;;;4.16;51.33
74561;BME280;62979;55.720;37.606;2023-05-07T00:25:31;100809.41;;;4.16;51.04
74561;BME280;62979;55.720;37.606;2023-05-07T00:27:58;100819.78;;;4.15;51.24
74561;BME280;62979;55.720;37.606;2023-05-07T00:30:30;100805.69;;;4.00;51.65
74561;BME280;62979;55.720;37.606;2023-05-07T00:32:57;100816.91;;;4.01;51.74
74561;BME280;62979;55.720;37.606;2023-05-07T00:35:24;100820.31;;;4.00;51.65
74561;BME280;62979;55.720;37.606;2023-05-07T00:37:51;100820.13;;;3.91;52.00
74561;BME280;62979;55.720;37.606;2023-05-07T00:40:18;100818.38;;;3.90;51.79
74561;BME280;62979;55.720;37.606;2023-05-07T00:42:45;100821.00;;;3.91;52.19
74561;BME280;62979;55.720;37.606;2023-05-07T00:45:12;100821.50;;;3.73;52.31
74561;BME280;62979;55.720;37.606;2023-05-07T00:47:40;100833.63;;;3.77;52.84
74561;BME280;62979;55.720;37.606;2023-05-07T00:50:09;100833.75;;;3.82;52.77
74561;BME280;62979;55.720;37.606;2023-05-07T00:52:37;100830.34;;;3.84;52.88
74561;BME280;62979;55.720;37.606;2023-05-07T00:55:07;100835.53;;;3.84;52.52
74561;BME280;62979;55.720;37.606;2023-05-07T00:57:36;100833.69;;;3.79;52.67
74561;BME280;62979;55.720;37.606;2023-05-07T01:00:05;100818.44;;;3.52;53.06
74561;BME280;62979;55.720;37.606;2023-05-07T01:02:34;100825.56;;;3.62;52.96
74561;BME280;62979;55.720;37.606;2023-05-07T01:05:04;100826.47;;;3.64;52.84
74561;BME280;62979;55.720;37.606;2023-05-07T01:07:34;100811.75;;;3.61;52.73
74561;BME280;62979;55.720;37.606;2023-05-07T01:10:03;100826.59;;;3.70;52.84
74561;BME280;62979;55.720;37.606;2023-05-07T01:12:32;100831.84;;;3.73;52.94
74561;BME280;62979;55.720;37.606;2023-05-07T01:15:00;100833.53;;;3.73;52.56
74561;BME280;62979;55.720;37.606;2023-05-07T01:17:27;100835.25;;;3.72;52.70
74561;BME280;62979;55.720;37.606;2023-05-07T01:19:54;100840.22;;;3.63;52.87
74561;BME280;62979;55.720;37.606;2023-05-07T01:22:30;100834.09;;;3.58;53.33
74561;BME280;62979;55.720;37.606;2023-05-07T01:24:58;100837.63;;;3.63;52.92
74561;BME280;62979;55.720;37.606;2023-05-07T01:27:27;100834.19;;;3.62;52.92
74561;BME280;62979;55.720;37.606;2023-05-07T01:29:54;100843.50;;;3.54;52.96
74561;BME280;62979;55.720;37.606;2023-05-07T01:32:24;100843.50;;;3.56;52.81
74561;BME280;62979;55.720;37.606;2023-05-07T01:34:55;100847.00;;;3.58;53.30
74561;BME280;62979;55.720;37.606;2023-05-07T01:37:25;100852.94;;;3.52;53.70
74561;BME280;62979;55.720;37.606;2023-05-07T01:39:54;100851.19;;;3.51;53.98
74561;BME280;62979;55.720;37.606;2023-05-07T01:42:21;100852.13;;;3.55;53.92
74561;BME280;62979;55.720;37.606;2023-05-07T01:44:48;100850.38;;;3.54;53.78
74561;BME280;62979;55.720;37.606;2023-05-07T01:47:16;100846.09;;;3.56;53.83
74561;BME280;62979;55.720;37.606;2023-05-07T01:49:43;100856.44;;;3.56;53.58
74561;BME280;62979;55.720;37.606;2023-05-07T01:52:11;100862.56;;;3.59;53.54
74561;BME280;62979;55.720;37.606;2023-05-07T01:54:38;100867.47;;;3.49;53.59
74561;BME280;62979;55.720;37.606;2023-05-07T01:57:06;100862.19;;;3.42;53.88
74561;BME280;62979;55.720;37.606;2023-05-07T01:59:33;100864.81;;;3.44;54.21
74561;BME280;62979;55.720;37.606;2023-05-07T02:02:00;100864.72;;;3.39;54.37
74561;BME280;62979;55.720;37.606;2023-05-07T02:04:27;100875.16;;;3.44;54.20
74561;BME280;62979;55.720;37.606;2023-05-07T02:06:54;100875.19;;;3.46;54.39
74561;BME280;62979;55.720;37.606;2023-05-07T02:09:21;100860.34;;;3.38;53.84
74561;BME280;62979;55.720;37.606;2023-05-07T02:11:48;100880.28;;;3.42;54.06
74561;BME280;62979;55.720;37.606;2023-05-07T02:14:16;100880.03;;;3.32;54.07
74561;BME280;62979;55.720;37.606;2023-05-07T02:16:43;100885.00;;;3.24;54.23
74561;BME280;62979;55.720;37.606;2023-05-07T02:19:10;100884.69;;;3.10;54.77
74561;BME280;62979;55.720;37.606;2023-05-07T02:21:37;100883.09;;;3.17;54.53
74561;BME280;62979;55.720;37.606;2023-05-07T02:24:04;100886.53;;;3.16;54.77
74561;BME280;62979;55.720;37.606;2023-05-07T02:26:31;100893.34;;;3.12;54.72
74561;BME280;62979;55.720;37.606;2023-05-07T02:28:59;100891.09;;;3.26;54.27
74561;BME280;62979;55.720;37.606;2023-05-07T02:31:27;100882.66;;;3.33;53.97
74561;BME280;62979;55.720;37.606;2023-05-07T02:33:54;100886.09;;;3.32;54.28
74561;BME280;62979;55.720;37.606;2023-05-07T02:36:21;100887.88;;;3.35;54.13
74561;BME280;62979;55.720;37.606;2023-05-07T02:38:48;100888.03;;;3.42;54.40
74561;BME280;62979;55.720;37.606;2023-05-07T02:41:15;100895.94;;;3.49;53.80
74561;BME280;62979;55.720;37.606;2023-05-07T02:43:41;100895.75;;;3.41;53.75
74561;BME280;62979;55.720;37.606;2023-05-07T02:46:09;100907.75;;;3.37;53.87
74561;BME280;62979;55.720;37.606;2023-05-07T02:48:37;100905.81;;;3.29;54.44
74561;BME280;62979;55.720;37.606;2023-05-07T02:51:04;100907.13;;;3.48;53.83
74561;BME280;62979;55.720;37.606;2023-05-07T02:53:31;100915.88;;;3.53;53.53
74561;BME280;62979;55.720;37.606;2023-05-07T02:56:00;100914.31;;;3.59;53.67
74561;BME280;62979;55.720;37.606;2023-05-07T02:58:28;100917.13;;;3.70;53.64
74561;BME280;62979;55.720;37.606;2023-05-07T03:00:55;100923.28;;;3.75;53.42
74561;BME280;62979;55.720;37.606;2023-05-07T03:03:21;100920.69;;;3.74;53.26
74561;BME280;62979;55.720;37.606;2023-05-07T03:05:50;100922.59;;;3.82;52.89
74561;BME280;62979;55.720;37.606;2023-05-07T03:08:17;100921.16;;;3.95;52.60
74561;BME280;62979;55.720;37.606;2023-05-07T03:10:44;100925.69;;;4.05;52.56
74561;BME280;62979;55.720;37.606;2023-05-07T03:13:10;100933.63;;;4.13;52.48
74561;BME280;62979;55.720;37.606;2023-05-07T03:15:37;100928.31;;;4.07;52.19
74561;BME280;62979;55.720;37.606;2023-05-07T03:18:04;100920.78;;;4.19;52.48
74561;BME280;62979;55.720;37.606;2023-05-07T03:20:31;100931.16;;;4.19;51.85
74561;BME280;62979;55.720;37.606;2023-05-07T03:22:59;100932.97;;;4.23;51.80
74561;BME280;62979;55.720;37.606;2023-05-07T03:25:27;100935.34;;;4.13;51.77
74561;BME280;62979;55.720;37.606;2023-05-07T03:27:55;100930.88;;;4.07;51.96
74561;BME280;62979;55.720;37.606;2023-05-07T03:30:22;100943.03;;;4.10;51.91
74561;BME280;62979;55.720;37.606;2023-05-07T03:32:49;100940.25;;;4.00;51.83
74561;BME280;62979;55.720;37.606;2023-05-07T03:35:16;100948.28;;;4.13;52.07
74561;BME280;62979;55.720;37.606;2023-05-07T03:37:43;100941.25;;;4.07;51.98
74561;BME280;62979;55.720;37.606;2023-05-07T03:40:12;100945.72;;;4.14;51.61
74561;BME280;62979;55.720;37.606;2023-05-07T03:42:39;100937.94;;;4.13;51.36
74561;BME280;62979;55.720;37.606;2023-05-07T03:45:08;100948.19;;;4.10;51.63
74561;BME280;62979;55.720;37.606;2023-05-07T03:47:35;100944.53;;;3.98;51.59
74561;BME280;62979;55.720;37.606;2023-05-07T03:50:02;100946.69;;;4.19;51.45
74561;BME280;62979;55.720;37.606;2023-05-07T03:52:29;100948.03;;;4.02;51.36
74561;BME280;62979;55.720;37.606;2023-05-07T03:54:56;100953.91;;;3.95;51.71
74561;BME280;62979;55.720;37.606;2023-05-07T03:57:24;100955.97;;;4.10;51.63
74561;BME280;62979;55.720;37.606;2023-05-07T03:59:51;100964.00;;;4.20;51.44
74561;BME280;62979;55.720;37.606;2023-05-07T04:02:18;100953.75;;;4.26;51.15
74561;BME280;62979;55.720;37.606;2023-05-07T04:04:45;100965.53;;;4.52;50.66
74561;BME280;62979;55.720;37.606;2023-05-07T04:07:11;100965.75;;;4.64;50.17
74561;BME280;62979;55.720;37.606;2023-05-07T04:09:38;100965.72;;;4.62;49.65
74561;BME280;62979;55.720;37.606;2023-05-07T04:12:05;100962.41;;;4.69;49.60
74561;BME280;62979;55.720;37.606;2023-05-07T04:14:34;100965.00;;;4.69;49.01
74561;BME280;62979;55.720;37.606;2023-05-07T04:17:00;100958.19;;;4.73;49.27
74561;BME280;62979;55.720;37.606;2023-05-07T04:19:28;100962.06;;;4.95;49.16
74561;BME280;62979;55.720;37.606;2023-05-07T04:21:55;100971.38;;;4.87;48.46
74561;BME280;62979;55.720;37.606;2023-05-07T04:24:21;100967.97;;;4.88;48.11
74561;BME280;62979;55.720;37.606;2023-05-07T04:26:48;100976.56;;;4.87;48.62
74561;BME280;62979;55.720;37.606;2023-05-07T04:29:16;100974.44;;;5.10;48.05
74561;BME280;62979;55.720;37.606;2023-05-07T04:31:44;100974.44;;;5.10;47.73
74561;BME280;62979;55.720;37.606;2023-05-07T04:34:11;100975.06;;;5.00;47.59
74561;BME280;62979;55.720;37.606;2023-05-07T04:36:39;100973.63;;;5.12;47.22
74561;BME280;62979;55.720;37.606;2023-05-07T04:39:06;100976.94;;;5.07;47.34
74561;BME280;62979;55.720;37.606;2023-05-07T04:41:33;100984.94;;;5.18;47.32
74561;BME280;62979;55.720;37.606;2023-05-07T04:44:01;100985.03;;;5.24;46.95
74561;BME280;62979;55.720;37.606;2023-05-07T04:46:31;100988.75;;;5.38;46.85
74561;BME280;62979;55.720;37.606;2023-05-07T04:48:59;100983.63;;;5.43;46.63
74561;BME280;62979;55.720;37.606;2023-05-07T04:51:26;100993.97;;;5.41;46.29
74561;BME280;62979;55.720;37.606;2023-05-07T04:53:53;100981.47;;;5.19;46.30
74561;BME280;62979;55.720;37.606;2023-05-07T04:56:20;100983.50;;;5.35;46.27
74561;BME280;62979;55.720;37.606;2023-05-07T04:58:47;100985.63;;;5.57;45.99
74561;BME280;62979;55.720;37.606;2023-05-07T05:01:13;100991.91;;;5.72;44.77
74561;BME280;62979;55.720;37.606;2023-05-07T05:03:40;100984.91;;;5.66;44.50
74561;BME280;62979;55.720;37.606;2023-05-07T05:06:10;100987.44;;;5.62;44.54
74561;BME280;62979;55.720;37.606;2023-05-07T05:08:37;100987.97;;;5.42;44.99
74561;BME280;62979;55.720;37.606;2023-05-07T05:11:05;100983.44;;;5.30;44.93
74561;BME280;62979;55.720;37.606;2023-05-07T05:13:32;100987.09;;;5.42;45.18
74561;BME280;62979;55.720;37.606;2023-05-07T05:15:58;100983.88;;;5.56;44.51
74561;BME280;62979;55.720;37.606;2023-05-07T05:18:25;100994.47;;;5.69;44.22
74561;BME280;62979;55.720;37.606;2023-05-07T05:20:52;100991.84;;;5.66;43.85
74561;BME280;62979;55.720;37.606;2023-05-07T05:23:20;100991.56;;;5.50;44.02
74561;BME280;62979;55.720;37.606;2023-05-07T05:25:47;100999.53;;;5.61;44.11
74561;BME280;62979;55.720;37.606;2023-05-07T05:28:14;100994.63;;;5.78;43.95
74561;BME280;62979;55.720;37.606;2023-05-07T05:30:41;101006.94;;;5.91;43.27
74561;BME280;62979;55.720;37.606;2023-05-07T05:33:08;101003.47;;;5.91;43.33
74561;BME280;62979;55.720;37.606;2023-05-07T05:35:35;101006.88;;;5.88;42.84
74561;BME280;62979;55.720;37.606;2023-05-07T05:38:02;101006.78;;;5.82;42.63
74561;BME280;62979;55.720;37.606;2023-05-07T05:40:30;101006.06;;;5.92;41.88
74561;BME280;62979;55.720;37.606;2023-05-07T05:42:58;101012.50;;;6.13;41.62
74561;BME280;62979;55.720;37.606;2023-05-07T05:45:25;101008.16;;;6.13;40.39
74561;BME280;62979;55.720;37.606;2023-05-07T05:47:52;101000.50;;;6.24;40.00
74561;BME280;62979;55.720;37.606;2023-05-07T05:50:19;101010.00;;;6.20;39.52
74561;BME280;62979;55.720;37.606;2023-05-07T05:52:46;101007.56;;;6.33;39.45
74561;BME280;62979;55.720;37.606;2023-05-07T05:55:13;101008.13;;;6.12;39.32
74561;BME280;62979;55.720;37.606;2023-05-07T05:57:41;101007.19;;;6.07;39.86
74561;BME280;62979;55.720;37.606;2023-05-07T06:00:09;101014.53;;;6.35;39.65
74561;BME280;62979;55.720;37.606;2023-05-07T06:02:37;101016.78;;;6.73;38.88
74561;BME280;62979;55.720;37.606;2023-05-07T06:05:04;101024.78;;;6.92;39.18
74561;BME280;62979;55.720;37.606;2023-05-07T06:07:31;101025.66;;;6.91;39.00
74561;BME280;62979;55.720;37.606;2023-05-07T06:09:59;101033.31;;;6.80;39.23
74561;BME280;62979;55.720;37.606;2023-05-07T06:12:26;101025.56;;;6.84;39.30
74561;BME280;62979;55.720;37.606;2023-05-07T06:14:55;100994.38;;;6.83;39.05
74561;BME280;62979;55.720;37.606;2023-05-07T06:17:21;101030.09;;;7.01;38.49
74561;BME280;62979;55.720;37.606;2023-05-07T06:19:48;101030.56;;;6.66;39.03
74561;BME280;62979;55.720;37.606;2023-05-07T06:22:15;101018.75;;;6.93;39.94
74561;BME280;62979;55.720;37.606;2023-05-07T06:24:42;101025.78;;;7.00;38.38
74561;BME280;62979;55.720;37.606;2023-05-07T06:27:09;101031.00;;;7.03;39.58
74561;BME280;62979;55.720;37.606;2023-05-07T06:29:36;101026.75;;;7.11;38.61
74561;BME280;62979;55.720;37.606;2023-05-07T06:32:08;101037.38;;;7.29;38.46
74561;BME280;62979;55.720;37.606;2023-05-07T06:34:35;101023.31;;;7.14;37.68
74561;BME280;62979;55.720;37.606;2023-05-07T06:37:02;101024.91;;;7.01;38.25
74561;BME280;62979;55.720;37.606;2023-05-07T06:39:29;101030.97;;;7.00;37.83
74561;BME280;62979;55.720;37.606;2023-05-07T06:41:56;101035.56;;;7.22;38.50
74561;BME280;62979;55.720;37.606;2023-05-07T06:44:23;101038.25;;;7.33;37.64
74561;BME280;62979;55.720;37.606;2023-05-07T06:46:50;101028.16;;;7.65;37.60
74561;BME280;62979;55.720;37.606;2023-05-07T06:49:18;101021.50;;;8.01;37.53
74561;BME280;62979;55.720;37.606;2023-05-07T06:51:45;101015.59;;;8.28;37.01
74561;BME280;62979;55.720;37.606;2023-05-07T06:54:12;101014.91;;;8.52;35.24
74561;BME280;62979;55.720;37.606;2023-05-07T06:56:39;101022.75;;;8.54;34.81
74561;BME280;62979;55.720;37.606;2023-05-07T06:59:07;101027.09;;;8.60;34.57
74561;BME280;62979;55.720;37.606;2023-05-07T07:01:34;101019.25;;;8.49;33.67
74561;BME280;62979;55.720;37.606;2023-05-07T07:04:00;101023.53;;;8.42;33.69
74561;BME280;62979;55.720;37.606;2023-05-07T07:06:29;101016.66;;;8.53;34.52
74561;BME280;62979;55.720;37.606;2023-05-07T07:08:57;101015.03;;;8.75;33.95
74561;BME280;62979;55.720;37.606;2023-05-07T07:11:24;101013.34;;;8.85;33.74
74561;BME280;62979;55.720;37.606;2023-05-07T07:13:51;101024.72;;;9.21;33.89
74561;BME280;62979;55.720;37.606;2023-05-07T07:16:19;101010.84;;;9.30;32.40
74561;BME280;62979;55.720;37.606;2023-05-07T07:18:46;101011.66;;;9.16;31.62
74561;BME280;62979;55.720;37.606;2023-05-07T07:21:13;101018.59;;;9.07;31.76
74561;BME280;62979;55.720;37.606;2023-05-07T07:23:41;101014.25;;;9.04;32.28
74561;BME280;62979;55.720;37.606;2023-05-07T07:26:08;101016.75;;;8.79;31.28
74561;BME280;62979;55.720;37.606;2023-05-07T07:28:42;101028.13;;;8.94;31.78
74561;BME280;62979;55.720;37.606;2023-05-07T07:31:10;101023.81;;;9.07;30.86
74561;BME280;62979;55.720;37.606;2023-05-07T07:33:37;101030.84;;;9.29;31.43
74561;BME280;62979;55.720;37.606;2023-05-07T07:36:05;101015.19;;;9.38;30.82
74561;BME280;62979;55.720;37.606;2023-05-07T07:38:32;101013.47;;;9.65;30.82
74561;BME280;62979;55.720;37.606;2023-05-07T07:41:01;101010.88;;;9.83;30.07
74561;BME280;62979;55.720;37.606;2023-05-07T07:43:28;101007.41;;;9.74;29.43
74561;BME280;62979;55.720;37.606;2023-05-07T07:45:55;101008.25;;;9.67;30.13
74561;BME280;62979;55.720;37.606;2023-05-07T07:48:22;100995.19;;;9.39;29.36
74561;BME280;62979;55.720;37.606;2023-05-07T07:50:49;101004.66;;;9.02;30.34
74561;BME280;62979;55.720;37.606;2023-05-07T07:53:17;101003.00;;;9.22;29.99
74561;BME280;62979;55.720;37.606;2023-05-07T07:55:44;100991.69;;;9.29;29.58
74561;BME280;62979;55.720;37.606;2023-05-07T07:58:12;101005.56;;;9.19;29.96
74561;BME280;62979;55.720;37.606;2023-05-07T08:00:39;101002.13;;;9.23;29.72
74561;BME280;62979;55.720;37.606;2023-05-07T08:03:09;101009.94;;;9.23;30.08
74561;BME280;62979;55.720;37.606;2023-05-07T08:05:36;101011.66;;;9.16;29.58
74561;BME280;62979;55.720;37.606;2023-05-07T08:08:04;101001.31;;;9.61;28.63
74561;BME280;62979;55.720;37.606;2023-05-07T08:10:31;101005.66;;;9.97;28.09
74561;BME280;62979;55.720;37.606;2023-05-07T08:13:00;101001.28;;;10.32;27.80
74561;BME280;62979;55.720;37.606;2023-05-07T08:15:30;100991.59;;;10.52;26.72
74561;BME280;62979;55.720;37.606;2023-05-07T08:17:57;100992.47;;;10.48;26.74
74561;BME280;62979;55.720;37.606;2023-05-07T08:20:25;100994.22;;;10.46;27.14
74561;BME280;62979;55.720;37.606;2023-05-07T08:22:52;100991.63;;;10.46;27.03
74561;BME280;62979;55.720;37.606;2023-05-07T08:25:19;101009.78;;;10.89;27.01
74561;BME280;62979;55.720;37.606;2023-05-07T08:27:46;101004.44;;;11.06;26.24
74561;BME280;62979;55.720;37.606;2023-05-07T08:30:14;101007.94;;;11.06;26.46
74561;BME280;62979;55.720;37.606;2023-05-07T08:32:42;100997.50;;;10.97;26.24
74561;BME280;62979;55.720;37.606;2023-05-07T08:35:09;100994.94;;;10.86;26.34
74561;BME280;62979;55.720;37.606;2023-05-07T08:37:36;100995.84;;;10.84;26.17
74561;BME280;62979;55.720;37.606;2023-05-07T08:40:04;100994.13;;;10.75;26.89
74561;BME280;62979;55.720;37.606;2023-05-07T08:42:35;101000.19;;;10.86;26.84
74561;BME280;62979;55.720;37.606;2023-05-07T08:45:04;100999.25;;;10.98;25.90
74561;BME280;62979;55.720;37.606;2023-05-07T08:47:42;100997.59;;;10.82;25.47
74561;BME280;62979;55.720;37.606;2023-05-07T08:50:11;100997.72;;;10.54;25.78
74561;BME280;62979;55.720;37.606;2023-05-07T08:52:39;100996.81;;;10.55;26.37
74561;BME280;62979;55.720;37.606;2023-05-07T08:55:07;100990.59;;;10.87;26.84
74561;BME280;62979;55.720;37.606;2023-05-07T08:57:35;100986.06;;;11.18;26.26
74561;BME280;62979;55.720;37.606;2023-05-07T09:00:02;100982.53;;;11.25;24.57
74561;BME280;62979;55.720;37.606;2023-05-07T09:02:29;100990.38;;;11.24;24.71
74561;BME280;62979;55.720;37.606;2023-05-07T09:04:58;100984.94;;;11.54;24.33
74561;BME280;62979;55.720;37.606;2023-05-07T09:07:25;100979.56;;;11.73;24.43
74561;BME280;62979;55.720;37.606;2023-05-07T09:09:52;100986.44;;;11.80;24.26
74561;BME280;62979;55.720;37.606;2023-05-07T09:12:20;100976.81;;;11.88;23.62
74561;BME280;62979;55.720;37.606;2023-05-07T09:14:47;100982.88;;;11.93;23.26
74561;BME280;62979;55.720;37.606;2023-05-07T09:17:15;100963.78;;;11.76;23.48
74561;BME280;62979;55.720;37.606;2023-05-07T09:19:44;100979.25;;;12.07;24.06
74561;BME280;62979;55.720;37.606;2023-05-07T09:22:13;100985.66;;;11.73;22.98
74561;BME280;62979;55.720;37.606;2023-05-07T09:24:40;100985.84;;;11.46;23.59
74561;BME280;62979;55.720;37.606;2023-05-07T09:27:07;100984.97;;;11.50;24.65
74561;BME280;62979;55.720;37.606;2023-05-07T09:29:38;100990.09;;;11.64;24.49
74561;BME280;62979;55.720;37.606;2023-05-07T09:32:06;100991.00;;;11.60;24.10
74561;BME280;62979;55.720;37.606;2023-05-07T09:34:34;100997.22;;;11.45;23.98
74561;BME280;62979;55.720;37.606;2023-05-07T09:37:01;100978.78;;;11.57;24.41
74561;BME280;62979;55.720;37.606;2023-05-07T09:39:40;100963.06;;;11.57;24.24
74561;BME280;62979;55.720;37.606;2023-05-07T09:42:07;100988.16;;;11.90;24.72
74561;BME280;62979;55.720;37.606;2023-05-07T09:44:34;100988.88;;;12.08;24.12
74561;BME280;62979;55.720;37.606;2023-05-07T09:47:04;100996.44;;;12.35;24.16
74561;BME280;62979;55.720;37.606;2023-05-07T09:49:34;100974.34;;;12.55;23.56
74561;BME280;62979;55.720;37.606;2023-05-07T09:52:05;100983.38;;;13.02;22.58
74561;BME280;62979;55.720;37.606;2023-05-07T09:54:35;100973.59;;;13.12;21.70
74561;BME280;62979;55.720;37.606;2023-05-07T09:57:05;100977.72;;;13.31;21.88
74561;BME280;62979;55.720;37.606;2023-05-07T09:59:32;100977.91;;;14.24;21.69
74561;BME280;62979;55.720;37.606;2023-05-07T10:02:01;100970.09;;;14.65;20.45
74561;BME280;62979;55.720;37.606;2023-05-07T10:04:31;100978.66;;;14.76;20.59
74561;BME280;62979;55.720;37.606;2023-05-07T10:06:58;100971.03;;;15.41;19.84
74561;BME280;62979;55.720;37.606;2023-05-07T10:09:26;100967.03;;;16.30;19.17
74561;BME280;62979;55.720;37.606;2023-05-07T10:11:54;100965.84;;;16.09;18.87
74561;BME280;62979;55.720;37.606;2023-05-07T10:14:22;100974.50;;;15.79;19.30
74561;BME280;62979;55.720;37.606;2023-05-07T10:16:50;100970.31;;;15.35;19.51
74561;BME280;62979;55.720;37.606;2023-05-07T10:19:20;100958.19;;;15.26;20.72
74561;BME280;62979;55.720;37.606;2023-05-07T10:21:53;100972.47;;;15.17;19.73
74561;BME280;62979;55.720;37.606;2023-05-07T10:24:26;100966.38;;;13.83;19.67
74561;BME280;62979;55.720;37.606;2023-05-07T10:26:56;100964.03;;;13.66;20.86
74561;BME280;62979;55.720;37.606;2023-05-07T10:29:33;100974.91;;;14.43;20.09
74561;BME280;62979;55.720;37.606;2023-05-07T10:32:32;100957.34;;;15.26;19.23
74561;BME280;62979;55.720;37.606;2023-05-07T10:35:09;100963.88;;;15.82;19.26
74561;BME280;62979;55.720;37.606;2023-05-07T10:37:40;100950.50;;;16.23;18.03
74561;BME280;62979;55.720;37.606;2023-05-07T10:40:10;100958.31;;;15.95;18.09
74561;BME280;62979;55.720;37.606;2023-05-07T10:42:38;100957.72;;;15.83;18.11
74561;BME280;62979;55.720;37.606;2023-05-07T10:45:13;100956.34;;;16.01;18.20
74561;BME280;62979;55.720;37.606;2023-05-07T10:48:06;100960.66;;;15.71;18.65
74561;BME280;62979;55.720;37.606;2023-05-07T10:50:33;100961.81;;;15.59;18.99
74561;BME280;62979;55.720;37.606;2023-05-07T10:53:23;100957.47;;;15.57;18.41
74561;BME280;62979;55.720;37.606;2023-05-07T10:56:23;100964.94;;;15.39;19.00
74561;BME280;62979;55.720;37.606;2023-05-07T10:58:54;100969.63;;;14.88;19.35
74561;BME280;62979;55.720;37.606;2023-05-07T11:01:50;100970.25;;;14.59;19.69
74561;BME280;62979;55.720;37.606;2023-05-07T11:04:19;100980.91;;;14.49;20.50
74561;BME280;62979;55.720;37.606;2023-05-07T11:07:29;100968.84;;;14.39;20.12
74561;BME280;62979;55.720;37.606;2023-05-07T11:10:02;100974.34;;;14.72;20.63
74561;BME280;62979;55.720;37.606;2023-05-07T11:12:49;100975.59;;;14.52;19.86
74561;BME280;62979;55.720;37.606;2023-05-07T11:15:44;100976.97;;;14.27;20.04
74561;BME280;62979;55.720;37.606;2023-05-07T11:18:15;100958.88;;;14.57;20.16
74561;BME280;62979;55.720;37.606;2023-05-07T11:20:50;100974.84;;;13.99;19.90
74561;BME280;62979;55.720;37.606;2023-05-07T11:23:56;100975.59;;;14.07;20.42
74561;BME280;62979;55.720;37.606;2023-05-07T11:26:24;100968.16;;;13.80;20.93
74561;BME280;62979;55.720;37.606;2023-05-07T11:28:52;100975.25;;;13.78;21.68
74561;BME280;62979;55.720;37.606;2023-05-07T11:31:21;100972.19;;;13.48;20.98
74561;BME280;62979;55.720;37.606;2023-05-07T11:33:51;100970.53;;;13.44;21.63
74561;BME280;62979;55.720;37.606;2023-05-07T11:36:20;100988.13;;;13.39;22.11
74561;BME280;62979;55.720;37.606;2023-05-07T11:38:48;100977.72;;;13.33;22.05
74561;BME280;62979;55.720;37.606;2023-05-07T11:41:16;100977.94;;;13.14;21.49
74561;BME280;62979;55.720;37.606;2023-05-07T11:43:58;100974.16;;;13.35;22.10
74561;BME280;62979;55.720;37.606;2023-05-07T11:46:27;100969.66;;;13.43;21.77
74561;BME280;62979;55.720;37.606;2023-05-07T11:48:56;100968.84;;;13.41;21.59
74561;BME280;62979;55.720;37.606;2023-05-07T11:51:24;100964.75;;;13.19;21.57
74561;BME280;62979;55.720;37.606;2023-05-07T11:53:55;100978.22;;;14.52;20.75
74561;BME280;62979;55.720;37.606;2023-05-07T11:56:22;100970.72;;;15.90;19.84
74561;BME280;62979;55.720;37.606;2023-05-07T11:58:49;100975.13;;;16.55;19.30
74561;BME280;62979;55.720;37.606;2023-05-07T12:01:17;100969.59;;;16.33;18.75
74561;BME280;62979;55.720;37.606;2023-05-07T12:03:45;100972.38;;;15.94;19.03
74561;BME280;62979;55.720;37.606;2023-05-07T12:06:15;100975.09;;;15.55;19.19
74561;BME280;62979;55.720;37.606;2023-05-07T12:08:44;100965.50;;;15.15;19.37
74561;BME280;62979;55.720;37.606;2023-05-07T12:11:16;100975.59;;;14.94;19.69
74561;BME280;62979;55.720;37.606;2023-05-07T12:13:48;100967.63;;;14.57;20.56
74561;BME280;62979;55.720;37.606;2023-05-07T12:16:16;100973.09;;;14.46;20.26
74561;BME280;62979;55.720;37.606;2023-05-07T12:18:43;100963.69;;;14.34;20.33
74561;BME280;62979;55.720;37.606;2023-05-07T12:21:11;100960.25;;;14.29;20.32
74561;BME280;62979;55.720;37.606;2023-05-07T12:23:40;100971.19;;;14.53;20.27
74561;BME280;62979;55.720;37.606;2023-05-07T12:26:08;100969.19;;;15.08;20.11
74561;BME280;62979;55.720;37.606;2023-05-07T12:28:38;100959.75;;;15.72;19.40
74561;BME280;62979;55.720;37.606;2023-05-07T12:31:06;100968.03;;;16.88;19.08
74561;BME280;62979;55.720;37.606;2023-05-07T12:33:34;100971.63;;;16.85;18.62
74561;BME280;62979;55.720;37.606;2023-05-07T12:36:06;100964.50;;;16.26;19.09
74561;BME280;62979;55.720;37.606;2023-05-07T12:38:39;100967.53;;;17.03;18.54
74561;BME280;62979;55.720;37.606;2023-05-07T12:41:08;100961.75;;;18.25;17.59
74561;BME280;62979;55.720;37.606;2023-05-07T12:43:37;100965.69;;;18.62;17.35
74561;BME280;62979;55.720;37.606;2023-05-07T12:46:06;100963.91;;;18.63;17.09
74561;BME280;62979;55.720;37.606;2023-05-07T12:48:36;100950.38;;;18.94;16.81
74561;BME280;62979;55.720;37.606;2023-05-07T12:51:05;100952.00;;;18.51;17.09
74561;BME280;62979;55.720;37.606;2023-05-07T12:53:41;100948.53;;;19.18;15.96